Time;durP1;ratioP1;P1;durP2;ratioP2;P2;SDS_P1;SDS_P2;PMS_P1;PMS_P2;Temp;Humidity;BMP_temperature;BMP_pressure;BME280_temperature;BME280_humidity;BME280_pressure;Samples;Min_cycle;Max_cycle;Signal;HPM_P1;HPM_P2
2022/08/21 00:01:33;;;;;;;23.10;20.70;;;14.10;99.90;;;;;;5063681;28;20553;-67
2022/08/21 00:04:06;;;;;;;23.63;21.17;;;14.10;99.90;;;;;;5059024;28;20480;-66
2022/08/21 00:06:33;;;;;;;21.50;19.50;;;14.00;99.90;;;;;;5059787;28;20492;-68
2022/08/21 00:09:01;;;;;;;25.00;22.90;;;14.10;99.90;;;;;;5061902;28;20950;-67
2022/08/21 00:11:28;;;;;;;20.90;19.10;;;14.10;99.90;;;;;;5063142;28;21069;-66
2022/08/21 00:13:55;;;;;;;28.90;20.83;;;14.20;99.90;;;;;;5061627;28;20867;-67
2022/08/21 00:16:22;;;;;;;23.80;21.53;;;14.10;99.90;;;;;;5057957;28;20487;-67
2022/08/21 00:18:51;;;;;;;25.93;23.40;;;14.20;99.90;;;;;;5060253;28;21036;-65
2022/08/21 00:21:18;;;;;;;22.47;20.50;;;14.20;99.90;;;;;;5062362;28;20456;-68
2022/08/21 00:23:45;;;;;;;26.93;23.40;;;14.20;99.90;;;;;;5062261;28;20550;-67
2022/08/21 00:26:12;;;;;;;27.13;24.23;;;14.20;99.90;;;;;;5060996;28;21137;-66
2022/08/21 00:28:40;;;;;;;24.73;22.73;;;14.30;99.90;;;;;;5058576;28;20470;-67
2022/08/21 00:31:08;;;;;;;24.40;22.47;;;14.40;99.90;;;;;;5062639;28;20462;-66
2022/08/21 00:33:36;;;;;;;27.73;24.70;;;14.40;99.90;;;;;;5059103;28;20479;-68
2022/08/21 00:36:05;;;;;;;28.30;23.10;;;14.30;99.90;;;;;;5060341;28;20848;-67
2022/08/21 00:38:33;;;;;;;25.77;23.47;;;14.30;99.90;;;;;;5059620;28;21084;-67
2022/08/21 00:41:03;;;;;;;24.97;22.67;;;14.20;99.90;;;;;;5061680;28;20466;-68
2022/08/21 00:43:32;;;;;;;26.87;24.20;;;14.10;99.90;;;;;;5055856;28;20458;-66
2022/08/21 00:46:00;;;;;;;25.33;22.83;;;14.00;99.90;;;;;;5060663;28;20461;-66
2022/08/21 00:48:27;;;;;;;26.87;24.40;;;14.00;99.90;;;;;;5057669;28;20455;-68
2022/08/21 00:50:57;;;;;;;30.07;27.10;;;13.90;99.90;;;;;;5054820;28;20451;-65
2022/08/21 00:53:27;;;;;;;27.80;25.53;;;14.00;99.90;;;;;;5060802;28;20496;-66
2022/08/21 00:55:55;;;;;;;27.50;24.80;;;14.00;99.90;;;;;;5062684;28;20455;-67
2022/08/21 00:58:23;;;;;;;31.87;28.80;;;14.10;99.90;;;;;;5059626;28;20840;-66
2022/08/21 01:00:51;;;;;;;32.80;26.77;;;14.10;99.90;;;;;;5054303;28;20456;-66
2022/08/21 01:03:21;;;;;;;28.07;22.97;;;14.20;99.90;;;;;;5060495;28;20945;-67
2022/08/21 01:05:48;;;;;;;28.67;25.90;;;14.10;99.90;;;;;;5055552;28;20460;-66
2022/08/21 01:08:17;;;;;;;25.40;23.40;;;14.10;99.90;;;;;;5055506;28;20810;-65
2022/08/21 01:10:46;;;;;;;23.70;21.77;;;14.00;99.90;;;;;;5063211;28;20495;-67
2022/08/21 01:13:17;;;;;;;25.70;23.00;;;13.90;99.90;;;;;;5060729;28;20490;-65
2022/08/21 01:15:47;;;;;;;27.23;24.70;;;13.80;99.90;;;;;;5058068;28;21062;-66
2022/08/21 01:18:15;;;;;;;27.77;25.20;;;13.70;99.90;;;;;;5060260;28;20460;-67
2022/08/21 01:20:45;;;;;;;27.70;25.37;;;13.60;99.90;;;;;;5060906;28;20838;-65
2022/08/21 01:23:14;;;;;;;28.13;25.10;;;13.60;99.90;;;;;;5058777;28;20466;-67
2022/08/21 01:25:41;;;;;;;29.77;26.70;;;13.50;99.90;;;;;;5057276;28;20459;-66
2022/08/21 01:28:13;;;;;;;27.33;24.83;;;13.50;99.90;;;;;;5061712;28;20972;-67
2022/08/21 01:30:44;;;;;;;28.43;25.07;;;13.40;99.90;;;;;;5052745;28;20459;-66
2022/08/21 01:33:11;;;;;;;28.00;25.30;;;13.40;99.90;;;;;;5053003;28;20459;-67
2022/08/21 01:35:39;;;;;;;29.37;26.60;;;13.40;99.90;;;;;;5062878;28;20463;-65
2022/08/21 01:38:07;;;;;;;31.93;28.67;;;13.30;99.90;;;;;;5057387;28;20848;-67
2022/08/21 01:40:35;;;;;;;28.50;25.97;;;13.20;99.90;;;;;;5063029;28;20597;-67
2022/08/21 01:43:02;;;;;;;28.27;25.70;;;13.20;99.90;;;;;;5057867;28;20468;-67
2022/08/21 01:45:29;;;;;;;26.60;24.10;;;13.10;99.90;;;;;;5065661;28;20462;-67
2022/08/21 01:47:55;;;;;;;34.60;25.80;;;13.10;99.90;;;;;;5064614;28;20830;-67
2022/08/21 01:50:23;;;;;;;27.50;24.90;;;13.00;99.90;;;;;;5064215;28;20472;-68
2022/08/21 01:52:51;;;;;;;25.77;23.57;;;13.00;99.90;;;;;;5060937;28;20985;-66
2022/08/21 01:55:19;;;;;;;27.33;24.80;;;13.00;99.90;;;;;;5055659;28;20478;-68
2022/08/21 01:57:48;;;;;;;27.63;25.20;;;13.00;99.90;;;;;;5057561;28;20455;-66
2022/08/21 02:00:17;;;;;;;26.47;24.07;;;13.00;99.90;;;;;;5060892;28;20495;-66
2022/08/21 02:02:45;;;;;;;26.67;24.20;;;13.00;99.90;;;;;;5062681;28;20558;-68
2022/08/21 02:05:13;;;;;;;29.50;26.07;;;13.00;99.90;;;;;;5065150;28;20456;-67
2022/08/21 02:07:42;;;;;;;26.80;24.47;;;13.00;99.90;;;;;;5063898;28;20485;-66
2022/08/21 02:10:12;;;;;;;27.93;25.43;;;12.90;99.90;;;;;;5057025;28;20481;-69
2022/08/21 02:12:39;;;;;;;25.17;23.03;;;12.90;99.90;;;;;;5058893;28;20986;-67
2022/08/21 02:15:10;;;;;;;24.73;22.63;;;12.90;99.90;;;;;;5063358;28;20487;-67
2022/08/21 02:17:42;;;;;;;26.97;24.40;;;12.80;99.90;;;;;;5064617;28;20469;-66
2022/08/21 02:20:10;;;;;;;29.90;26.37;;;12.80;99.90;;;;;;5064645;28;20514;-66
2022/08/21 02:22:38;;;;;;;24.27;22.23;;;12.80;99.90;;;;;;5057754;28;20496;-67
2022/08/21 02:25:05;;;;;;;27.17;24.97;;;12.80;99.90;;;;;;5059882;28;20463;-67
2022/08/21 02:27:40;;;;;;;25.00;22.67;;;12.80;99.90;;;;;;5060208;28;20573;-66
2022/08/21 02:30:11;;;;;;;26.57;24.33;;;12.70;99.90;;;;;;5061384;28;20489;-67
2022/08/21 02:32:40;;;;;;;27.00;24.73;;;12.70;99.90;;;;;;5057358;28;20976;-66
2022/08/21 02:35:09;;;;;;;28.20;25.47;;;12.70;99.90;;;;;;5058919;28;20456;-66
2022/08/21 02:37:43;;;;;;;29.73;27.13;;;12.70;99.90;;;;;;5065545;28;20459;-67
2022/08/21 02:40:11;;;;;;;29.10;26.03;;;12.70;99.90;;;;;;5060097;28;20486;-69
2022/08/21 02:42:38;;;;;;;28.20;25.80;;;12.70;99.90;;;;;;5060273;28;20470;-66
2022/08/21 02:45:08;;;;;;;25.67;23.33;;;12.70;99.90;;;;;;5059701;28;20984;-69
2022/08/21 02:47:36;;;;;;;30.17;24.63;;;12.70;99.90;;;;;;5057366;28;20468;-67
2022/08/21 02:50:04;;;;;;;27.47;25.17;;;12.70;99.90;;;;;;5060396;28;20463;-66
2022/08/21 02:52:31;;;;;;;29.50;26.57;;;12.80;99.90;;;;;;5058967;28;20491;-67
2022/08/21 02:54:58;;;;;;;28.50;25.70;;;12.80;99.90;;;;;;5062499;28;20462;-67
2022/08/21 02:57:24;;;;;;;32.23;27.10;;;12.70;99.90;;;;;;5060741;28;20459;-66
2022/08/21 02:59:52;;;;;;;30.17;27.00;;;12.60;99.90;;;;;;5055754;28;20498;-66
2022/08/21 03:02:21;;;;;;;31.70;26.40;;;12.50;99.90;;;;;;5065927;28;20780;-68
2022/08/21 03:04:49;;;;;;;29.60;27.00;;;12.50;99.90;;;;;;5061827;28;20462;-67
2022/08/21 03:07:17;;;;;;;26.93;24.23;;;12.70;99.90;;;;;;5060736;28;20824;-67
2022/08/21 03:09:45;;;;;;;27.50;24.40;;;12.90;99.90;;;;;;5056877;28;20460;-68
2022/08/21 03:12:12;;;;;;;26.63;23.20;;;13.10;99.90;;;;;;5055141;28;20490;-68
2022/08/21 03:14:39;;;;;;;26.27;23.70;;;13.20;99.90;;;;;;5062049;28;20490;-68
2022/08/21 03:17:06;;;;;;;23.70;21.53;;;13.20;99.90;;;;;;5063794;28;20472;-70
2022/08/21 03:19:35;;;;;;;24.97;22.77;;;13.30;99.90;;;;;;5068256;28;20782;-69
2022/08/21 03:22:02;;;;;;;24.10;21.70;;;13.20;99.90;;;;;;5058321;28;20454;-65
2022/08/21 03:24:29;;;;;;;22.70;20.50;;;13.10;99.90;;;;;;5055039;28;20460;-67
2022/08/21 03:26:56;;;;;;;24.53;22.20;;;13.00;99.90;;;;;;5052834;28;20467;-70
2022/08/21 03:29:24;;;;;;;26.97;24.10;;;13.00;99.90;;;;;;5058941;28;20479;-67
2022/08/21 03:31:53;;;;;;;23.47;20.30;;;12.90;99.90;;;;;;5057767;28;20466;-66
2022/08/21 03:34:20;;;;;;;26.20;23.27;;;12.90;99.90;;;;;;5061249;28;20793;-67
2022/08/21 03:36:48;;;;;;;24.40;22.37;;;12.90;99.90;;;;;;5056391;28;20458;-67
2022/08/21 03:39:15;;;;;;;25.47;22.20;;;13.00;99.90;;;;;;5054156;28;20743;-65
2022/08/21 03:41:42;;;;;;;26.73;24.00;;;13.00;99.90;;;;;;5062132;28;20478;-67
2022/08/21 03:44:09;;;;;;;25.60;23.03;;;13.20;99.90;;;;;;5057615;28;20471;-69
2022/08/21 03:46:36;;;;;;;29.43;22.70;;;13.20;99.90;;;;;;5064264;28;20775;-66
2022/08/21 03:49:03;;;;;;;24.67;22.00;;;13.20;99.90;;;;;;5060911;28;20463;-66
2022/08/21 03:51:32;;;;;;;24.33;22.20;;;13.20;99.90;;;;;;5060935;28;20447;-67
2022/08/21 03:54:01;;;;;;;24.17;21.93;;;13.20;99.90;;;;;;5053988;28;20490;-68
2022/08/21 03:56:28;;;;;;;25.83;21.63;;;13.20;99.90;;;;;;5064903;28;20455;-65
2022/08/21 03:58:56;;;;;;;27.70;24.33;;;13.10;99.90;;;;;;5061581;28;20466;-67
2022/08/21 04:01:23;;;;;;;30.17;23.37;;;13.00;99.90;;;;;;5051135;28;20518;-66
2022/08/21 04:03:50;;;;;;;26.23;23.57;;;12.90;99.90;;;;;;5024019;28;20478;-67
2022/08/21 04:06:17;;;;;;;24.83;22.50;;;12.80;99.90;;;;;;5025812;28;21260;-68
2022/08/21 04:08:44;;;;;;;23.50;21.47;;;12.70;99.90;;;;;;5027455;28;20888;-67
2022/08/21 04:11:14;;;;;;;23.87;21.67;;;12.60;99.90;;;;;;5029306;28;20480;-68
2022/08/21 04:13:42;;;;;;;23.17;21.20;;;12.60;99.90;;;;;;5027800;28;20538;-67
2022/08/21 04:16:09;;;;;;;30.47;23.10;;;12.60;99.90;;;;;;5029049;28;20495;-66
2022/08/21 04:18:36;;;;;;;23.70;21.23;;;12.80;99.90;;;;;;5025477;28;20475;-67
2022/08/21 04:23:44;;;;;;;24.70;22.10;;;13.00;99.90;;;;;;5027755;28;20835;-70
2022/08/21 04:26:13;;;;;;;26.63;22.33;;;13.00;99.90;;;;;;5028432;28;20463;-67
2022/08/21 04:28:40;;;;;;;22.57;20.27;;;13.10;99.90;;;;;;5028435;28;20470;-70
2022/08/21 04:31:06;;;;;;;22.70;20.67;;;13.20;99.90;;;;;;5026838;28;20471;-68
2022/08/21 04:33:33;;;;;;;23.00;21.00;;;13.20;99.90;;;;;;5028529;28;20464;-69
2022/08/21 04:36:01;;;;;;;22.70;20.30;;;13.20;99.90;;;;;;5028798;28;20471;-67
2022/08/21 04:38:31;;;;;;;22.20;20.30;;;13.20;99.90;;;;;;5029059;28;20459;-68
2022/08/21 04:40:58;;;;;;;24.00;20.07;;;13.30;99.90;;;;;;5029213;28;20491;-69
2022/08/21 04:43:26;;;;;;;22.50;20.60;;;13.20;99.90;;;;;;5029629;28;20478;-68
2022/08/21 04:45:54;;;;;;;29.13;21.10;;;13.30;99.90;;;;;;5028424;28;21099;-67
2022/08/21 04:48:23;;;;;;;21.87;20.17;;;13.30;99.90;;;;;;5028617;28;20467;-68
2022/08/21 04:50:57;;;;;;;21.87;19.60;;;13.50;99.90;;;;;;5027256;28;20463;-67
2022/08/21 04:53:30;;;;;;;21.73;19.30;;;13.60;99.90;;;;;;5027369;28;20480;-66
2022/08/21 04:56:04;;;;;;;22.97;20.57;;;13.60;99.90;;;;;;5028207;28;20464;-68
2022/08/21 04:58:33;;;;;;;21.00;19.13;;;13.60;99.90;;;;;;5028149;28;20506;-67
2022/08/21 05:01:02;;;;;;;20.53;18.67;;;13.60;99.90;;;;;;5028838;28;20471;-67
2022/08/21 05:03:31;;;;;;;23.30;18.80;;;13.60;99.90;;;;;;5026909;28;20478;-67
2022/08/21 05:05:58;;;;;;;29.87;19.20;;;13.60;99.90;;;;;;5025266;28;21180;-66
2022/08/21 05:08:28;;;;;;;22.47;17.47;;;13.70;99.90;;;;;;5026728;28;20460;-66
2022/08/21 05:10:56;;;;;;;19.37;17.83;;;13.70;99.90;;;;;;5028199;28;20554;-68
2022/08/21 05:13:23;;;;;;;17.80;16.20;;;13.70;99.90;;;;;;5030646;28;20448;-67
2022/08/21 05:15:51;;;;;;;18.53;16.93;;;13.70;99.90;;;;;;5030843;28;20572;-67
2022/08/21 05:18:18;;;;;;;19.87;18.17;;;13.70;99.90;;;;;;5032690;28;20468;-66
2022/08/21 05:20:45;;;;;;;21.37;19.63;;;13.70;99.90;;;;;;5029771;28;20499;-66
2022/08/21 05:23:14;;;;;;;18.33;17.03;;;13.60;99.90;;;;;;5060410;28;21046;-67
2022/08/21 05:25:42;;;;;;;21.10;16.67;;;13.70;99.90;;;;;;5063040;28;20447;-68
2022/08/21 05:28:09;;;;;;;18.87;17.17;;;13.80;99.90;;;;;;5062698;28;20457;-66
2022/08/21 05:30:36;;;;;;;22.10;16.43;;;13.90;99.90;;;;;;5039502;28;20479;-67
2022/08/21 05:33:07;;;;;;;18.40;16.90;;;13.90;99.90;;;;;;5031915;28;20459;-67
2022/08/21 05:35:34;;;;;;;19.20;14.70;;;14.10;99.90;;;;;;5029956;28;20464;-67
2022/08/21 05:38:01;;;;;;;16.67;15.13;;;14.10;99.90;;;;;;5031140;28;20472;-66
2022/08/21 05:40:28;;;;;;;15.17;13.87;;;14.20;99.90;;;;;;5030597;28;20487;-67
2022/08/21 05:42:56;;;;;;;17.70;15.80;;;14.30;99.90;;;;;;5029851;28;20487;-69
2022/08/21 05:45:24;;;;;;;17.30;15.53;;;14.30;99.90;;;;;;5029616;28;20482;-67
2022/08/21 05:47:51;;;;;;;16.63;14.83;;;14.40;99.90;;;;;;5030655;28;20503;-68
2022/08/21 05:50:19;;;;;;;15.10;13.70;;;14.40;99.90;;;;;;5030086;28;20817;-67
2022/08/21 05:52:46;;;;;;;19.00;15.43;;;14.40;99.90;;;;;;5028241;28;20486;-66
2022/08/21 05:55:13;;;;;;;25.10;14.80;;;14.60;99.90;;;;;;5029685;28;20467;-68
2022/08/21 05:57:41;;;;;;;18.80;14.03;;;14.60;99.90;;;;;;5030874;28;20470;-68
2022/08/21 06:00:12;;;;;;;15.50;14.00;;;14.70;99.90;;;;;;5032278;28;20495;-68
2022/08/21 06:02:39;;;;;;;15.07;13.77;;;14.90;99.90;;;;;;5031499;28;20923;-67
2022/08/21 06:05:06;;;;;;;14.63;13.37;;;15.00;99.90;;;;;;5030312;28;21099;-67
2022/08/21 06:07:35;;;;;;;14.53;13.03;;;15.00;99.90;;;;;;5030701;28;20455;-68
2022/08/21 06:10:02;;;;;;;14.87;13.37;;;15.10;99.90;;;;;;5032040;28;20692;-71
2022/08/21 06:12:29;;;;;;;14.60;13.30;;;15.20;99.90;;;;;;5029523;28;20895;-66
2022/08/21 06:14:55;;;;;;;14.30;13.00;;;15.20;99.90;;;;;;5031641;28;20483;-68
2022/08/21 06:17:23;;;;;;;15.33;13.63;;;15.30;99.90;;;;;;5030125;28;20464;-67
2022/08/21 06:19:52;;;;;;;14.57;13.30;;;15.30;99.90;;;;;;5030611;28;20862;-68
2022/08/21 06:22:19;;;;;;;14.30;13.03;;;15.50;99.90;;;;;;5050453;28;20467;-66
2022/08/21 06:24:48;;;;;;;17.27;13.13;;;15.50;99.90;;;;;;5056967;28;20477;-69
2022/08/21 06:27:17;;;;;;;14.97;13.33;;;15.70;99.90;;;;;;5055778;28;20498;-68
2022/08/21 06:29:44;;;;;;;15.03;13.47;;;15.70;99.90;;;;;;5036123;28;20459;-67
2022/08/21 06:32:13;;;;;;;15.30;13.13;;;15.70;99.90;;;;;;5030705;28;20470;-68
2022/08/21 06:34:41;;;;;;;13.67;12.40;;;15.90;99.90;;;;;;5029750;28;20455;-68
2022/08/21 06:37:08;;;;;;;15.10;13.80;;;16.00;99.90;;;;;;5031511;28;20479;-70
2022/08/21 06:39:35;;;;;;;13.87;12.67;;;16.00;99.90;;;;;;5031193;28;21056;-69
2022/08/21 06:42:04;;;;;;;16.23;13.37;;;16.20;99.90;;;;;;5029648;28;20495;-67
2022/08/21 06:44:31;;;;;;;15.47;14.10;;;16.40;99.90;;;;;;5029055;28;20467;-68
2022/08/21 06:46:59;;;;;;;14.43;12.93;;;16.30;99.90;;;;;;5030047;28;20456;-68
2022/08/21 06:49:25;;;;;;;16.40;14.03;;;16.40;99.90;;;;;;5030238;28;21034;-68
2022/08/21 06:51:52;;;;;;;14.17;13.07;;;16.60;99.90;;;;;;5029921;28;20943;-67
2022/08/21 06:54:20;;;;;;;14.47;13.47;;;16.80;99.90;;;;;;5029893;28;20716;-67
2022/08/21 06:56:46;;;;;;;14.87;13.87;;;16.70;99.90;;;;;;5030426;28;21459;-67
2022/08/21 06:59:15;;;;;;;15.77;14.20;;;16.80;99.90;;;;;;5029405;28;20476;-70
2022/08/21 07:01:42;;;;;;;15.43;13.90;;;17.00;99.90;;;;;;5028536;28;20490;-69
2022/08/21 07:04:09;;;;;;;15.20;13.63;;;17.10;99.90;;;;;;5029695;28;20463;-68
2022/08/21 07:06:36;;;;;;;15.10;13.60;;;17.10;99.90;;;;;;5028337;28;20467;-68
2022/08/21 07:09:04;;;;;;;15.00;14.00;;;17.10;99.90;;;;;;5028775;28;20571;-67
2022/08/21 07:11:31;;;;;;;14.30;13.13;;;17.30;99.90;;;;;;5028679;28;20462;-69
2022/08/21 07:13:58;;;;;;;16.73;13.17;;;17.50;99.90;;;;;;5026873;28;20992;-69
2022/08/21 07:16:26;;;;;;;14.20;13.00;;;17.50;99.90;;;;;;5029004;28;20487;-67
2022/08/21 07:18:53;;;;;;;17.63;13.67;;;17.70;99.90;;;;;;5029533;28;20478;-69
2022/08/21 07:21:20;;;;;;;13.20;12.23;;;17.80;99.90;;;;;;5028216;28;20494;-67
2022/08/21 07:23:50;;;;;;;16.30;13.40;;;17.90;99.90;;;;;;5028790;28;20460;-69
2022/08/21 07:26:19;;;;;;;17.90;13.70;;;17.90;99.90;;;;;;5025597;28;20467;-68
2022/08/21 07:28:46;;;;;;;15.10;13.60;;;18.10;99.90;;;;;;5026066;28;21124;-67
2022/08/21 07:31:16;;;;;;;15.00;13.57;;;18.10;99.90;;;;;;5024745;28;20464;-66
2022/08/21 07:33:44;;;;;;;13.50;12.20;;;18.10;99.90;;;;;;5028520;28;20456;-66
2022/08/21 07:36:11;;;;;;;23.57;14.47;;;18.30;99.90;;;;;;5029529;28;20571;-66
2022/08/21 07:38:38;;;;;;;14.90;13.53;;;18.40;99.90;;;;;;5029624;28;20467;-67
2022/08/21 07:41:12;;;;;;;15.20;13.93;;;18.50;99.90;;;;;;5029411;28;20479;-66
2022/08/21 07:43:39;;;;;;;15.60;14.13;;;18.50;99.90;;;;;;5029359;28;20463;-67
2022/08/21 07:46:06;;;;;;;15.70;14.40;;;18.70;99.90;;;;;;5029249;28;20580;-68
2022/08/21 07:48:33;;;;;;;16.30;14.90;;;18.70;99.90;;;;;;5029713;28;20463;-66
2022/08/21 07:51:06;;;;;;;16.37;14.80;;;18.90;99.90;;;;;;5029210;28;20717;-67
2022/08/21 07:53:33;;;;;;;16.53;15.20;;;19.00;99.90;;;;;;5028529;28;20487;-67
2022/08/21 07:56:00;;;;;;;15.27;13.97;;;19.10;99.90;;;;;;5029343;28;20475;-67
2022/08/21 07:58:28;;;;;;;23.37;14.23;;;19.10;99.90;;;;;;5028786;28;20456;-66
2022/08/21 08:00:54;;;;;;;14.20;13.10;;;19.20;99.90;;;;;;5029806;28;20491;-66
2022/08/21 08:03:22;;;;;;;14.20;12.90;;;19.30;99.90;;;;;;5028038;28;20460;-66
2022/08/21 08:05:48;;;;;;;13.23;12.23;;;19.40;99.90;;;;;;5028262;28;20958;-68
2022/08/21 08:10:59;;;;;;;12.83;11.77;;;19.70;99.90;;;;;;5027549;28;20525;-66
2022/08/21 08:13:28;;;;;;;12.53;11.63;;;19.80;99.90;;;;;;5029283;28;20518;-69
2022/08/21 08:15:54;;;;;;;13.07;12.20;;;19.90;99.90;;;;;;5027809;28;20513;-67
2022/08/21 08:18:21;;;;;;;12.83;12.13;;;19.90;99.90;;;;;;5028495;28;20471;-69
2022/08/21 08:20:48;;;;;;;12.30;11.40;;;20.00;99.90;;;;;;5027276;28;21072;-68
2022/08/21 08:23:17;;;;;;;12.63;11.83;;;20.10;99.90;;;;;;5027874;28;21128;-66
2022/08/21 08:25:44;;;;;;;14.23;12.87;;;20.20;99.90;;;;;;5028872;28;20467;-68
2022/08/21 08:28:11;;;;;;;12.70;11.70;;;20.40;99.90;;;;;;5029312;28;21322;-68
2022/08/21 08:30:38;;;;;;;12.63;11.77;;;20.50;99.90;;;;;;5029536;28;20470;-67
2022/08/21 08:33:05;;;;;;;12.53;11.73;;;20.70;99.90;;;;;;5027927;28;20522;-68
2022/08/21 08:35:32;;;;;;;13.00;11.77;;;20.80;99.90;;;;;;5029747;28;22611;-68
2022/08/21 08:37:59;;;;;;;13.03;12.23;;;20.90;99.90;;;;;;5028462;28;20583;-66
2022/08/21 08:40:36;;;;;;;12.70;11.80;;;21.00;99.90;;;;;;5029059;28;20463;-68
2022/08/21 08:43:03;;;;;;;12.30;11.60;;;21.20;99.90;;;;;;5029320;28;20475;-66
2022/08/21 08:45:33;;;;;;;12.90;12.27;;;21.40;99.90;;;;;;5028630;28;20536;-68
2022/08/21 08:48:04;;;;;;;13.53;12.50;;;21.30;99.90;;;;;;5027245;28;20463;-67
2022/08/21 08:50:40;;;;;;;13.20;12.20;;;21.20;99.90;;;;;;5027464;28;20463;-67
2022/08/21 08:53:11;;;;;;;12.93;12.30;;;21.20;99.90;;;;;;5027752;28;20491;-67
2022/08/21 08:55:42;;;;;;;13.33;12.43;;;21.30;99.90;;;;;;5027909;28;20912;-67
2022/08/21 08:58:21;;;;;;;12.43;11.70;;;21.80;99.90;;;;;;5028405;28;20557;-66
2022/08/21 09:00:51;;;;;;;13.00;12.10;;;22.60;99.90;;;;;;5028343;28;20978;-68
2022/08/21 09:03:19;;;;;;;13.07;11.97;;;23.10;99.90;;;;;;5028260;28;20467;-69
2022/08/21 09:05:48;;;;;;;13.60;12.60;;;23.60;99.90;;;;;;5028673;28;20451;-68
2022/08/21 09:08:39;;;;;;;14.00;13.13;;;24.20;99.90;;;;;;5028922;28;20475;-67
2022/08/21 09:11:13;;;;;;;13.70;12.57;;;24.40;99.90;;;;;;5029085;28;20885;-68
2022/08/21 09:13:55;;;;;;;13.33;12.43;;;24.60;99.90;;;;;;5027769;28;20460;-66
2022/08/21 09:16:31;;;;;;;12.97;12.17;;;24.60;99.90;;;;;;5028080;28;20480;-68
2022/08/21 09:19:06;;;;;;;13.80;12.60;;;25.40;99.90;;;;;;5028274;28;20958;-68
2022/08/21 09:21:41;;;;;;;13.07;12.27;;;26.00;99.90;;;;;;5027078;28;20478;-69
2022/08/21 09:24:23;;;;;;;14.00;13.20;;;26.20;99.90;;;;;;5028347;28;20468;-67
2022/08/21 09:26:58;;;;;;;14.33;13.53;;;25.90;99.90;;;;;;5028707;28;20478;-66
2022/08/21 09:29:29;;;;;;;13.30;12.60;;;25.60;99.90;;;;;;5027633;28;21262;-67
2022/08/21 09:31:56;;;;;;;14.23;13.13;;;25.80;99.90;;;;;;5043064;28;20468;-67
2022/08/21 09:34:26;;;;;;;14.23;13.20;;;25.90;99.60;;;;;;5055726;28;21602;-68
2022/08/21 09:36:54;;;;;;;13.83;12.87;;;25.80;99.90;;;;;;5056988;28;20460;-67
2022/08/21 09:39:27;;;;;;;13.67;12.57;;;25.70;99.90;;;;;;5057271;28;20478;-67
2022/08/21 09:42:00;;;;;;;14.13;13.33;;;25.80;99.90;;;;;;5029929;28;20599;-66
2022/08/21 09:44:28;;;;;;;14.20;13.20;;;26.40;98.90;;;;;;5027861;28;20460;-67
2022/08/21 09:46:56;;;;;;;14.53;13.23;;;26.40;98.10;;;;;;5027657;28;20463;-67
2022/08/21 09:49:30;;;;;;;14.83;13.40;;;26.30;98.30;;;;;;5027569;28;20848;-67
2022/08/21 09:51:58;;;;;;;14.27;13.30;;;26.30;98.10;;;;;;5027278;28;20471;-68
2022/08/21 09:54:30;;;;;;;14.40;13.37;;;26.40;97.70;;;;;;5030982;28;20492;-68
2022/08/21 09:59:47;;;;;;;14.20;13.10;;;27.90;94.90;;;;;;5051426;28;20610;-68
2022/08/21 10:02:28;;;;;;;13.57;12.57;;;27.90;94.20;;;;;;5031554;28;20586;-68
2022/08/21 10:04:59;;;;;;;13.23;12.43;;;27.20;94.30;;;;;;5030793;28;20466;-68
2022/08/21 10:07:29;;;;;;;13.27;12.27;;;27.60;93.40;;;;;;5031018;28;20797;-68
2022/08/21 10:10:01;;;;;;;12.80;12.10;;;27.90;92.20;;;;;;5030473;28;20467;-68
2022/08/21 10:12:40;;;;;;;14.10;13.00;;;27.90;93.00;;;;;;5031637;28;20460;-67
2022/08/21 10:15:15;;;;;;;13.90;13.00;;;27.40;92.40;;;;;;5029735;28;20846;-68
2022/08/21 10:17:51;;;;;;;14.53;13.33;;;27.40;93.90;;;;;;5031363;28;20477;-68
2022/08/21 10:20:23;;;;;;;15.30;14.13;;;27.40;93.20;;;;;;5029913;28;20459;-67
2022/08/21 10:23:02;;;;;;;13.90;12.80;;;27.80;92.30;;;;;;5030300;28;21075;-68
2022/08/21 10:25:36;;;;;;;14.27;13.37;;;27.50;92.30;;;;;;5030500;28;20996;-67
2022/08/21 10:28:12;;;;;;;15.47;14.20;;;28.00;92.80;;;;;;5030943;28;20472;-69
2022/08/21 10:30:44;;;;;;;14.77;13.80;;;28.20;91.10;;;;;;5030826;28;20467;-69
2022/08/21 10:33:28;;;;;;;13.60;12.80;;;28.20;91.00;;;;;;5030295;28;22405;-67
2022/08/21 10:36:03;;;;;;;14.37;13.43;;;28.20;90.20;;;;;;5028921;28;20454;-68
2022/08/21 10:38:59;;;;;;;14.30;13.40;;;27.80;91.10;;;;;;5028820;28;20965;-68
2022/08/21 10:41:37;;;;;;;14.90;13.47;;;27.90;90.60;;;;;;5029343;28;21793;-69
2022/08/21 10:44:21;;;;;;;14.00;12.83;;;27.70;91.30;;;;;;5029494;28;20459;-68
2022/08/21 10:46:55;;;;;;;14.50;13.40;;;27.20;90.90;;;;;;5030237;28;20517;-67
2022/08/21 10:49:30;;;;;;;13.90;13.00;;;27.10;91.20;;;;;;5030619;28;20471;-69
2022/08/21 10:52:20;;;;;;;14.10;13.27;;;27.40;91.10;;;;;;5030635;28;20967;-68
2022/08/21 10:54:54;;;;;;;14.07;13.13;;;27.20;89.70;;;;;;5029992;28;20553;-69
2022/08/21 10:57:28;;;;;;;21.90;20.13;;;26.80;90.10;;;;;;5029913;28;20467;-68
2022/08/21 11:00:00;;;;;;;14.53;13.03;;;27.10;90.80;;;;;;5030068;28;20467;-69
2022/08/21 11:02:32;;;;;;;14.03;13.17;;;27.20;90.60;;;;;;5030088;28;20496;-68
2022/08/21 11:05:06;;;;;;;14.70;13.30;;;27.20;90.00;;;;;;5029785;28;20474;-67
2022/08/21 11:07:37;;;;;;;15.33;14.27;;;27.10;89.90;;;;;;5030038;28;20475;-68
2022/08/21 11:10:11;;;;;;;14.20;13.23;;;26.80;90.50;;;;;;5027266;28;20619;-67
2022/08/21 11:12:43;;;;;;;14.13;13.10;;;27.40;90.10;;;;;;5029096;28;20867;-67
2022/08/21 11:15:29;;;;;;;13.83;13.03;;;27.90;88.40;;;;;;5028593;28;20574;-68
2022/08/21 11:18:03;;;;;;;13.33;12.60;;;28.10;86.50;;;;;;5029239;28;20562;-69
2022/08/21 11:20:35;;;;;;;13.90;12.93;;;28.00;87.80;;;;;;5029833;28;20460;-68
2022/08/21 11:23:07;;;;;;;13.57;12.77;;;28.60;85.40;;;;;;5029232;28;20479;-68
2022/08/21 11:25:37;;;;;;;14.37;13.03;;;28.90;84.40;;;;;;5029454;28;21062;-68
2022/08/21 11:28:10;;;;;;;13.53;12.73;;;29.40;84.00;;;;;;5030580;28;20455;-68
2022/08/21 11:30:49;;;;;;;13.37;12.57;;;30.00;82.80;;;;;;5029673;28;20467;-68
2022/08/21 11:33:29;;;;;;;14.10;13.17;;;29.60;78.60;;;;;;5029807;28;20460;-68
2022/08/21 11:36:04;;;;;;;14.90;14.10;;;29.70;80.00;;;;;;5029407;28;20462;-69
2022/08/21 11:38:39;;;;;;;13.67;12.93;;;29.30;79.20;;;;;;5029071;28;20566;-68
2022/08/21 11:41:16;;;;;;;13.13;12.43;;;29.40;78.30;;;;;;5029532;28;20470;-69
2022/08/21 11:43:46;;;;;;;13.27;12.53;;;29.80;77.50;;;;;;5029557;28;20495;-68
2022/08/21 11:46:24;;;;;;;13.73;12.93;;;30.20;73.50;;;;;;5029800;28;20505;-68
2022/08/21 11:49:16;;;;;;;14.10;12.80;;;30.40;74.50;;;;;;5028587;28;20466;-69
2022/08/21 11:51:49;;;;;;;13.50;12.80;;;30.60;72.40;;;;;;5029272;28;20466;-68
2022/08/21 11:54:24;;;;;;;12.80;12.10;;;31.00;69.40;;;;;;5028590;28;20486;-69
2022/08/21 11:56:56;;;;;;;12.97;12.27;;;30.20;69.00;;;;;;5028619;28;20468;-69
2022/08/21 11:59:37;;;;;;;13.43;12.70;;;30.90;69.60;;;;;;5029435;28;20466;-70
2022/08/21 12:02:10;;;;;;;12.70;12.10;;;30.60;67.80;;;;;;5029073;28;20495;-70
2022/08/21 12:04:45;;;;;;;13.30;12.60;;;30.80;69.20;;;;;;5027768;28;20451;-70
2022/08/21 12:07:14;;;;;;;13.87;12.97;;;30.30;67.70;;;;;;5028803;28;20965;-70
2022/08/21 12:09:41;;;;;;;13.43;12.63;;;30.80;66.20;;;;;;5029504;28;20459;-70
2022/08/21 12:12:14;;;;;;;12.80;11.83;;;31.20;66.70;;;;;;5028594;28;20480;-69
2022/08/21 12:14:43;;;;;;;12.90;12.00;;;31.10;64.20;;;;;;5028184;28;20608;-70
2022/08/21 12:17:19;;;;;;;13.07;12.37;;;30.30;63.50;;;;;;5028047;28;20475;-69
2022/08/21 12:19:57;;;;;;;13.93;13.07;;;30.90;63.70;;;;;;5028537;28;20471;-69
2022/08/21 12:22:37;;;;;;;15.93;14.83;;;31.20;63.60;;;;;;5028095;28;21040;-69
2022/08/21 12:25:08;;;;;;;49.53;46.33;;;31.00;61.50;;;;;;5028132;28;20466;-69
2022/08/21 12:27:47;;;;;;;14.47;13.47;;;31.20;62.50;;;;;;5028846;28;20456;-69
2022/08/21 12:30:23;;;;;;;220.97;201.90;;;30.80;61.70;;;;;;5028876;28;20459;-71
2022/08/21 12:32:59;;;;;;;14.30;13.07;;;31.40;60.50;;;;;;5029177;28;20464;-70
2022/08/21 12:35:32;;;;;;;14.47;13.23;;;31.20;60.20;;;;;;5028157;28;21016;-69
2022/08/21 12:38:08;;;;;;;13.87;13.07;;;31.50;59.60;;;;;;5028191;28;20474;-69
2022/08/21 12:40:41;;;;;;;14.20;13.10;;;30.80;59.60;;;;;;5029046;28;20471;-70
2022/08/21 12:43:15;;;;;;;14.13;13.23;;;30.90;61.70;;;;;;5028261;28;20488;-69
2022/08/21 12:45:44;;;;;;;12.83;12.13;;;31.20;60.40;;;;;;5028000;28;20475;-70
2022/08/21 12:48:19;;;;;;;14.33;13.43;;;31.30;60.10;;;;;;5029168;28;21029;-70